»·PEaware :: N132KT KIML-4V9

N132KT :: KIML-4V9

FLIGHT INFORMATION

Flight Status: Arrived
Operator: Privately registered:
United States
More flights under this callsign
Pilot: Keith S. (1)
Aircraft: BEECH AIRCRAFT BARON
(BE58)
More flights by this aircraft type
Origin: KIML Imperial Mun
United States
Destination: 4V9 Antelope Co
United States
More flights between these airports :: More routes between these airports
Route:
File this flight plan on PilotEdge
Remarks:
Altitude:
(Current/Filed)
9,500ft
Speed:
(Current/Filed)
170kts
Departed: 03-Jul-19 05:20 AM
Arrived: 03-Jul-19 06:24 AM
Distance/Time
Traveled:
188nm/1:03
Distance/Time
To Go:
Arrived

Flight Plot

Page will automatically refresh every two minutes.

Flight plan parsing failed; only flown route is shown


Map Options




Map Legend


Flown Route
Filed Route
Departure Airport
Arrival Airport
Navaid (VOR, NDB)
Fix

Horizontal Profiles

Position Reports

Time Latitude Longitude Heading Altitude Ground
Speed
03-Jul-19 05:18 40.503913 -101.615327 323 3276ft 0kts
03-Jul-19 05:19 40.510213 -101.621401 323 3284ft 107kts
03-Jul-19 05:20 40.539518 -101.628251 59 4293ft 125kts
03-Jul-19 05:21 40.542592 -101.581503 86 5257ft 133kts
03-Jul-19 05:22 40.548536 -101.533807 67 6260ft 133kts
03-Jul-19 05:23 40.564747 -101.490267 58 7242ft 133kts
03-Jul-19 05:24 40.584149 -101.447244 56 7980ft 141kts
03-Jul-19 05:25 40.604945 -101.402892 55 8669ft 142kts
03-Jul-19 05:26 40.625879 -101.358554 55 9348ft 142kts
03-Jul-19 05:27 40.647794 -101.312153 56 9523ft 169kts
03-Jul-19 05:28 40.673378 -101.257846 56 9512ft 177kts
03-Jul-19 05:29 40.699511 -101.202326 56 9513ft 178kts
03-Jul-19 05:30 40.725675 -101.146650 56 9515ft 178kts
03-Jul-19 05:31 40.751764 -101.091035 56 9519ft 178kts
03-Jul-19 05:32 40.777753 -101.035532 56 9525ft 177kts
03-Jul-19 05:33 40.803774 -100.979871 56 9528ft 178kts
03-Jul-19 05:34 40.829843 -100.924005 57 9529ft 179kts
03-Jul-19 05:35 40.856162 -100.867498 57 9529ft 180kts
03-Jul-19 05:36 40.882534 -100.810764 57 9528ft 181kts
03-Jul-19 05:37 40.908889 -100.753940 57 9528ft 181kts
03-Jul-19 05:38 40.935207 -100.697106 57 9528ft 181kts
03-Jul-19 05:39 40.961532 -100.640155 57 9528ft 181kts
03-Jul-19 05:40 40.987796 -100.583221 57 9528ft 181kts
03-Jul-19 05:41 41.014106 -100.526090 57 9528ft 181kts
03-Jul-19 05:42 41.040439 -100.468803 57 9528ft 181kts
03-Jul-19 05:43 41.066713 -100.411539 57 9528ft 182kts
03-Jul-19 05:44 41.093031 -100.354068 56 9528ft 182kts
03-Jul-19 05:46 41.118995 -100.297271 57 9525ft 182kts
03-Jul-19 05:47 41.145510 -100.239165 57 9515ft 183kts
03-Jul-19 05:48 41.171956 -100.181090 57 9505ft 184kts
03-Jul-19 05:49 41.198562 -100.122547 57 9496ft 184kts
03-Jul-19 05:50 41.225116 -100.064008 57 9489ft 185kts
03-Jul-19 05:51 41.251777 -100.005123 57 9490ft 185kts
03-Jul-19 05:52 41.278441 -99.946114 57 9492ft 185kts
03-Jul-19 05:53 41.305049 -99.887118 57 9492ft 186kts
03-Jul-19 05:54 41.331663 -99.827989 57 9492ft 186kts
03-Jul-19 05:55 41.358219 -99.768873 57 9492ft 186kts
03-Jul-19 05:56 41.384747 -99.709705 57 9492ft 186kts
03-Jul-19 05:57 41.411320 -99.650321 57 9492ft 186kts
03-Jul-19 05:58 41.437789 -99.591052 57 9492ft 186kts
03-Jul-19 05:59 41.464376 -99.531401 57 9492ft 186kts
03-Jul-19 06:00 41.490778 -99.472048 57 9492ft 186kts
03-Jul-19 06:01 41.517226 -99.412473 57 9492ft 186kts
03-Jul-19 06:02 41.543653 -99.352828 57 9492ft 186kts
03-Jul-19 06:03 41.570095 -99.293040 57 9484ft 186kts
03-Jul-19 06:03 41.592037 -99.243329 57 9479ft 186kts
03-Jul-19 06:05 41.622723 -99.173670 58 9471ft 185kts
03-Jul-19 06:06 41.648838 -99.114258 58 9464ft 185kts
03-Jul-19 06:07 41.675014 -99.054567 57 9464ft 186kts
03-Jul-19 06:08 41.701292 -98.994556 57 9464ft 188kts
03-Jul-19 06:08 41.723421 -98.943932 57 9465ft 189kts
03-Jul-19 06:10 41.754687 -98.872260 58 9465ft 192kts
03-Jul-19 06:10 41.777318 -98.820234 58 9465ft 193kts
03-Jul-19 06:11 41.804420 -98.757836 58 9465ft 194kts
03-Jul-19 06:12 41.831636 -98.695050 58 9465ft 194kts
03-Jul-19 06:13 41.858775 -98.632308 58 9465ft 194kts
03-Jul-19 06:14 41.885845 -98.569548 57 9467ft 193kts
03-Jul-19 06:15 41.912841 -98.507163 63 9484ft 192kts
03-Jul-19 06:16 41.939651 -98.444509 62 9490ft 193kts
03-Jul-19 06:17 41.968046 -98.378237 62 8706ft 220kts
03-Jul-19 06:18 41.998618 -98.306845 63 7631ft 222kts
03-Jul-19 06:19 42.029328 -98.234902 63 6576ft 218kts
03-Jul-19 06:20 42.059477 -98.164103 63 5543ft 214kts
03-Jul-19 06:21 42.088454 -98.095840 62 3854ft 211kts
03-Jul-19 06:22 42.125289 -98.055599 34 2109ft 165kts
03-Jul-19 06:23 42.112543 -98.037427 131 1733ft 13kts
03-Jul-19 06:24 42.111184 -98.037491 107 1736ft 0kts
03-Jul-19 06:25 42.111184 -98.037491 107 1736ft 0kts
03-Jul-19 06:26 42.111184 -98.037491 107 1736ft 0kts
03-Jul-19 06:27 42.111184 -98.037491 107 1736ft 0kts
03-Jul-19 06:28 42.111184 -98.037491 107 1736ft 0kts
03-Jul-19 06:29 42.111184 -98.037491 107 1736ft 0kts
03-Jul-19 06:30 42.111184 -98.037491 107 1736ft 0kts
03-Jul-19 06:31 42.111184 -98.037491 107 1736ft 0kts
03-Jul-19 06:32 42.111184 -98.037491 107 1736ft 0kts
03-Jul-19 06:33 42.111184 -98.037491 107 1736ft 0kts
03-Jul-19 06:34 42.111184 -98.037491 107 1736ft 0kts
03-Jul-19 06:35 42.111184 -98.037491 107 1736ft 0kts
03-Jul-19 06:36 42.111184 -98.037491 107 1736ft 0kts
03-Jul-19 06:37 42.111184 -98.037491 107 1736ft 0kts

Navigation Log

Ident Type
Flight plan parsing failed, navigation log unavailable